createdAt,value
2019-06-15T00:00:16.978Z,19.62
2019-06-15T00:01:17.019Z,19.59
2019-06-15T00:02:16.293Z,19.59
2019-06-15T00:03:16.589Z,19.62
2019-06-15T00:04:16.858Z,19.63
2019-06-15T00:05:17.137Z,19.56
2019-06-15T00:06:16.411Z,19.51
2019-06-15T00:07:16.674Z,19.51
2019-06-15T00:08:16.989Z,19.45
2019-06-15T00:09:16.273Z,19.44
2019-06-15T00:10:16.563Z,19.45
2019-06-15T00:11:16.599Z,19.38
2019-06-15T00:12:16.862Z,19.37
2019-06-15T00:13:17.132Z,19.34
2019-06-15T00:14:16.394Z,19.32
2019-06-15T00:15:16.692Z,19.31
2019-06-15T00:16:16.965Z,19.30
2019-06-15T00:17:16.234Z,19.30
2019-06-15T00:18:16.505Z,19.28
2019-06-15T00:19:16.775Z,19.27
2019-06-15T00:20:17.073Z,19.28
2019-06-15T00:21:17.113Z,19.28
2019-06-15T00:22:16.399Z,19.27
2019-06-15T00:23:16.664Z,19.35
2019-06-15T00:24:16.936Z,19.39
2019-06-15T00:25:16.206Z,19.34
2019-06-15T00:26:16.485Z,19.30
2019-06-15T00:27:16.754Z,19.28
2019-06-15T00:28:17.026Z,19.28
2019-06-15T00:29:16.300Z,19.32
2019-06-15T00:30:16.592Z,19.34
2019-06-15T00:31:16.660Z,19.34
2019-06-15T00:32:16.935Z,19.37
2019-06-15T00:33:17.221Z,19.34
2019-06-15T00:34:16.499Z,19.35
2019-06-15T00:35:16.775Z,19.34
2019-06-15T00:36:17.049Z,19.32
2019-06-15T00:37:16.326Z,19.38
2019-06-15T00:38:16.592Z,19.37
2019-06-15T00:39:16.867Z,19.38
2019-06-15T00:40:17.161Z,19.39
2019-06-15T00:41:17.192Z,19.39
2019-06-15T00:42:16.461Z,19.39
2019-06-15T00:43:16.718Z,19.37
2019-06-15T00:44:16.977Z,19.37
2019-06-15T00:45:16.260Z,19.34
2019-06-15T00:46:16.520Z,19.32
2019-06-15T00:47:16.787Z,19.30
2019-06-15T00:48:17.068Z,19.28
2019-06-15T00:49:16.337Z,19.27
2019-06-15T00:50:16.613Z,19.24
2019-06-15T00:51:16.671Z,19.25
2019-06-15T00:52:16.941Z,19.25
2019-06-15T00:53:17.198Z,19.22
2019-06-15T00:54:16.473Z,19.27
2019-06-15T00:55:16.738Z,19.28
2019-06-15T00:56:16.996Z,19.31
2019-06-15T00:57:16.264Z,19.30
2019-06-15T00:58:16.541Z,19.20
2019-06-15T00:59:16.825Z,19.20
2019-06-15T01:00:17.116Z,19.11
2019-06-15T01:01:17.161Z,19.11
2019-06-15T01:02:16.434Z,19.11
2019-06-15T01:03:16.706Z,19.08
2019-06-15T01:04:16.982Z,19.05
2019-06-15T01:05:16.258Z,18.94
2019-06-15T01:06:16.531Z,18.91
2019-06-15T01:07:16.805Z,18.88
2019-06-15T01:08:17.076Z,18.93
2019-06-15T01:09:16.349Z,18.90
2019-06-15T01:10:16.667Z,18.87
2019-06-15T01:11:16.740Z,18.90
2019-06-15T01:12:17.032Z,18.88
2019-06-15T01:13:16.303Z,18.87
2019-06-15T01:14:16.585Z,18.87
2019-06-15T01:15:16.854Z,18.87
2019-06-15T01:16:17.129Z,18.87
2019-06-15T01:17:16.410Z,18.87
2019-06-15T01:18:16.690Z,18.82
2019-06-15T01:19:16.953Z,18.83
2019-06-15T01:20:16.263Z,18.82
2019-06-15T01:21:16.296Z,18.79
2019-06-15T01:22:16.556Z,18.76
2019-06-15T01:23:16.816Z,18.77
2019-06-15T01:24:17.101Z,18.75
2019-06-15T01:25:16.392Z,18.73
2019-06-15T01:26:16.674Z,18.73
2019-06-15T01:27:16.949Z,18.76
2019-06-15T01:28:16.218Z,18.83
2019-06-15T01:29:16.487Z,18.79
2019-06-15T01:30:16.768Z,18.77
2019-06-15T01:31:16.820Z,18.75
2019-06-15T01:32:17.602Z,18.75
2019-06-15T01:33:16.885Z,18.75
2019-06-15T01:34:17.175Z,18.72
2019-06-15T01:35:16.448Z,18.67
2019-06-15T01:36:16.722Z,18.60
2019-06-15T01:37:16.992Z,18.63
2019-06-15T01:38:16.257Z,18.60
2019-06-15T01:39:16.523Z,18.59
2019-06-15T01:40:16.805Z,18.58
2019-06-15T01:41:16.896Z,18.58
2019-06-15T01:42:17.172Z,18.55
2019-06-15T01:43:16.443Z,18.55
2019-06-15T01:44:16.748Z,18.56
2019-06-15T01:45:17.093Z,18.51
2019-06-15T01:46:16.358Z,18.48
2019-06-15T01:47:16.629Z,18.45
2019-06-15T01:48:16.894Z,18.44
2019-06-15T01:49:17.175Z,18.39
2019-06-15T01:50:16.449Z,18.36
2019-06-15T01:51:16.519Z,18.36
2019-06-15T01:52:16.786Z,18.29
2019-06-15T01:53:17.049Z,18.29
2019-06-15T01:54:16.325Z,18.27
2019-06-15T01:55:20.741Z,18.25
2019-06-15T01:56:16.663Z,18.18
2019-06-15T01:57:16.926Z,18.21
2019-06-15T01:58:16.281Z,18.24
2019-06-15T01:59:16.563Z,18.21
2019-06-15T02:00:16.897Z,18.24
2019-06-15T02:01:16.964Z,18.24
2019-06-15T02:02:16.239Z,18.18
2019-06-15T02:03:16.533Z,18.17
2019-06-15T02:04:16.805Z,18.17
2019-06-15T02:05:17.094Z,18.24
2019-06-15T02:06:16.371Z,18.31
2019-06-15T02:07:16.647Z,18.29
2019-06-15T02:08:16.926Z,18.31
2019-06-15T02:09:17.258Z,18.29
2019-06-15T02:10:16.532Z,18.35
2019-06-15T02:11:16.602Z,18.35
2019-06-15T02:12:16.869Z,18.33
2019-06-15T02:13:17.136Z,18.31
2019-06-15T02:14:16.449Z,18.33
2019-06-15T02:15:16.734Z,18.31
2019-06-15T02:16:17.015Z,18.32
2019-06-15T02:17:16.294Z,18.35
2019-06-15T02:18:16.603Z,18.35
2019-06-15T02:19:16.863Z,18.35
2019-06-15T02:20:17.179Z,18.39
2019-06-15T02:21:16.210Z,18.38
2019-06-15T02:22:16.484Z,18.36
2019-06-15T02:23:16.763Z,18.33
2019-06-15T02:24:17.031Z,18.35
2019-06-15T02:25:16.306Z,18.35
2019-06-15T02:26:16.579Z,18.32
2019-06-15T02:27:16.851Z,18.31
2019-06-15T02:28:17.114Z,18.29
2019-06-15T02:29:16.394Z,18.28
2019-06-15T02:30:16.689Z,18.29
2019-06-15T02:31:16.726Z,18.25
2019-06-15T02:32:17.008Z,18.28
2019-06-15T02:33:16.275Z,18.27
2019-06-15T02:34:16.553Z,18.28
2019-06-15T02:35:16.837Z,18.28
2019-06-15T02:36:17.107Z,18.25
2019-06-15T02:37:16.387Z,18.22
2019-06-15T02:38:16.663Z,18.21
2019-06-15T02:39:16.660Z,18.18
2019-06-15T02:40:16.943Z,18.15
2019-06-15T02:41:16.995Z,18.14
2019-06-15T02:42:16.346Z,18.12
2019-06-15T02:43:16.627Z,18.14
2019-06-15T02:44:16.917Z,18.10
2019-06-15T02:45:17.184Z,18.01
2019-06-15T02:46:16.467Z,18.03
2019-06-15T02:47:16.742Z,17.98
2019-06-15T02:48:17.035Z,17.97
2019-06-15T02:49:16.322Z,17.98
2019-06-15T02:50:16.632Z,17.97
2019-06-15T02:51:16.653Z,17.96
2019-06-15T02:52:16.915Z,17.96
2019-06-15T02:53:17.196Z,17.96
2019-06-15T02:54:16.489Z,17.96
2019-06-15T02:55:16.768Z,17.96
2019-06-15T02:56:17.043Z,18.03
2019-06-15T02:57:16.355Z,18.03
2019-06-15T02:58:16.621Z,18.00
2019-06-15T02:59:16.898Z,18.03
2019-06-15T03:00:17.185Z,18.03
2019-06-15T03:01:16.283Z,18.03
2019-06-15T03:02:16.575Z,17.98
2019-06-15T03:03:16.836Z,17.97
2019-06-15T03:04:17.107Z,17.97
2019-06-15T03:05:16.376Z,18.01
2019-06-15T03:06:16.639Z,18.08
2019-06-15T03:07:16.919Z,18.05
2019-06-15T03:08:17.201Z,18.08
2019-06-15T03:09:16.476Z,18.10
2019-06-15T03:10:16.757Z,18.19
2019-06-15T03:11:16.814Z,18.21
2019-06-15T03:12:17.146Z,18.15
2019-06-15T03:13:16.410Z,18.17
2019-06-15T03:14:16.667Z,18.10
2019-06-15T03:15:16.946Z,18.07
2019-06-15T03:16:16.214Z,18.10
2019-06-15T03:17:16.483Z,18.08
2019-06-15T03:18:16.747Z,18.10
2019-06-15T03:19:17.007Z,18.10
2019-06-15T03:20:16.295Z,18.14
2019-06-15T03:21:16.358Z,18.10
2019-06-15T03:22:16.660Z,18.07
2019-06-15T03:23:16.931Z,18.07
2019-06-15T03:24:17.198Z,18.05
2019-06-15T03:25:16.479Z,18.04
2019-06-15T03:26:16.774Z,18.03
2019-06-15T03:27:17.039Z,17.98
2019-06-15T03:28:16.310Z,18.01
2019-06-15T03:29:16.572Z,18.00
2019-06-15T03:30:16.850Z,17.97
2019-06-15T03:31:16.907Z,17.96
2019-06-15T03:32:17.188Z,17.96
2019-06-15T03:33:16.472Z,17.96
2019-06-15T03:34:17.017Z,17.93
2019-06-15T03:35:16.320Z,17.91
2019-06-15T03:36:16.976Z,17.89
2019-06-15T03:37:16.249Z,17.87
2019-06-15T03:38:16.553Z,17.84
2019-06-15T03:39:16.846Z,17.81
2019-06-15T03:40:17.110Z,17.79
2019-06-15T03:41:17.187Z,17.73
2019-06-15T03:42:16.478Z,17.76
2019-06-15T03:43:16.750Z,17.73
2019-06-15T03:44:17.010Z,17.70
2019-06-15T03:45:16.282Z,17.69
2019-06-15T03:46:16.548Z,17.69
2019-06-15T03:47:16.810Z,17.68
2019-06-15T03:48:17.093Z,17.68
2019-06-15T03:49:16.365Z,17.70
2019-06-15T03:50:16.635Z,17.70
2019-06-15T03:51:16.711Z,17.69
2019-06-15T03:52:16.983Z,17.69
2019-06-15T03:53:16.274Z,17.73
2019-06-15T03:54:16.550Z,17.76
2019-06-15T03:55:16.829Z,17.73
2019-06-15T03:56:21.411Z,17.74
2019-06-15T03:57:16.598Z,17.74
2019-06-15T03:58:16.879Z,17.74
2019-06-15T03:59:17.166Z,17.73
2019-06-15T04:00:16.469Z,17.79
2019-06-15T04:01:16.520Z,17.83
2019-06-15T04:02:16.798Z,17.83
2019-06-15T04:03:17.164Z,17.83
2019-06-15T04:04:16.466Z,17.86
2019-06-15T04:05:16.777Z,17.90
2019-06-15T04:06:17.038Z,17.89
2019-06-15T04:07:16.309Z,17.93
2019-06-15T04:08:16.569Z,17.96
2019-06-15T04:09:16.836Z,17.97
2019-06-15T04:10:17.127Z,17.98
2019-06-15T04:11:17.182Z,18.00
2019-06-15T04:12:16.528Z,18.04
2019-06-15T04:13:16.806Z,18.08
2019-06-15T04:14:17.067Z,18.08
2019-06-15T04:15:16.342Z,18.18
2019-06-15T04:16:16.649Z,18.18
2019-06-15T04:17:16.926Z,18.24
2019-06-15T04:18:16.211Z,18.28
2019-06-15T04:19:16.498Z,18.33
2019-06-15T04:20:16.774Z,18.36
2019-06-15T04:21:16.840Z,18.45
2019-06-15T04:22:17.132Z,18.54
2019-06-15T04:23:16.411Z,18.56
2019-06-15T04:24:16.714Z,18.62
2019-06-15T04:25:16.992Z,18.66
2019-06-15T04:26:16.262Z,18.67
2019-06-15T04:27:16.523Z,18.67
2019-06-15T04:28:16.803Z,18.75
2019-06-15T04:29:17.086Z,18.73
2019-06-15T04:30:16.363Z,18.77
2019-06-15T04:31:16.412Z,18.77
2019-06-15T04:32:16.682Z,18.79
2019-06-15T04:33:16.962Z,18.84
2019-06-15T04:34:16.278Z,18.91
2019-06-15T04:35:16.542Z,18.93
2019-06-15T04:36:16.808Z,19.00
2019-06-15T04:37:17.079Z,19.03
2019-06-15T04:38:16.348Z,19.05
2019-06-15T04:39:16.625Z,19.11
2019-06-15T04:40:16.900Z,19.15
2019-06-15T04:41:16.311Z,19.17
2019-06-15T04:42:16.582Z,19.20
2019-06-15T04:43:16.863Z,19.24
2019-06-15T04:44:17.135Z,19.14
2019-06-15T04:45:16.413Z,19.18
2019-06-15T04:46:16.692Z,19.27
2019-06-15T04:47:16.959Z,19.32
2019-06-15T04:48:16.233Z,19.30
2019-06-15T04:49:16.514Z,19.28
2019-06-15T04:50:16.794Z,19.27
2019-06-15T04:51:16.870Z,19.28
2019-06-15T04:52:17.154Z,19.31
2019-06-15T04:53:16.454Z,19.31
2019-06-15T04:54:16.713Z,19.34
2019-06-15T04:55:17.011Z,19.32
2019-06-15T04:56:16.347Z,19.37
2019-06-15T04:57:16.620Z,19.31
2019-06-15T04:58:16.901Z,19.39
2019-06-15T04:59:16.226Z,19.45
2019-06-15T05:00:16.539Z,19.51
2019-06-15T05:01:16.616Z,19.58
2019-06-15T05:02:16.883Z,19.65
2019-06-15T05:03:17.160Z,19.68
2019-06-15T05:04:16.433Z,19.76
2019-06-15T05:05:16.715Z,19.79
2019-06-15T05:06:17.053Z,19.90
2019-06-15T05:07:16.328Z,19.94
2019-06-15T05:08:16.586Z,20.03
2019-06-15T05:09:16.855Z,20.11
2019-06-15T05:10:17.149Z,20.17
2019-06-15T05:11:16.262Z,20.31
2019-06-15T05:12:16.539Z,20.31
2019-06-15T05:13:16.809Z,20.37
2019-06-15T05:14:17.086Z,20.39
2019-06-15T05:15:16.356Z,20.45
2019-06-15T05:16:16.622Z,20.49
2019-06-15T05:17:16.891Z,20.44
2019-06-15T05:18:17.251Z,20.52
2019-06-15T05:19:16.566Z,20.54
2019-06-15T05:20:16.840Z,20.52
2019-06-15T05:21:16.900Z,20.49
2019-06-15T05:22:17.190Z,20.51
2019-06-15T05:23:16.467Z,20.59
2019-06-15T05:24:16.743Z,20.60
2019-06-15T05:25:17.021Z,20.56
2019-06-15T05:26:16.292Z,20.51
2019-06-15T05:27:16.569Z,20.49
2019-06-15T05:28:16.833Z,20.49
2019-06-15T05:29:17.177Z,20.55
2019-06-15T05:30:16.450Z,20.54
2019-06-15T05:31:16.531Z,20.56
2019-06-15T05:32:16.799Z,20.60
2019-06-15T05:33:17.095Z,20.62
2019-06-15T05:34:16.406Z,20.69
2019-06-15T05:35:16.693Z,20.76
2019-06-15T05:36:16.961Z,20.75
2019-06-15T05:37:16.262Z,20.82
2019-06-15T05:38:16.570Z,20.80
2019-06-15T05:39:16.876Z,20.80
2019-06-15T05:40:17.182Z,20.90
2019-06-15T05:41:16.236Z,20.97
2019-06-15T05:42:16.557Z,21.07
2019-06-15T05:43:16.823Z,21.06
2019-06-15T05:44:17.088Z,21.14
2019-06-15T05:45:16.378Z,21.14
2019-06-15T05:46:16.649Z,21.15
2019-06-15T05:47:16.910Z,21.15
2019-06-15T05:48:17.191Z,21.23
2019-06-15T05:49:16.464Z,21.40
2019-06-15T05:50:16.746Z,21.47
2019-06-15T05:51:16.806Z,21.42
2019-06-15T05:52:17.080Z,21.40
2019-06-15T05:53:16.346Z,21.65
2019-06-15T05:54:16.617Z,21.70
2019-06-15T05:55:16.886Z,21.70
2019-06-15T05:56:17.163Z,21.68
2019-06-15T05:57:21.386Z,21.70
2019-06-15T05:58:16.361Z,21.79
2019-06-15T05:59:16.624Z,21.97
2019-06-15T06:00:16.944Z,21.97
2019-06-15T06:01:16.974Z,21.93
2019-06-15T06:02:16.253Z,22.06
2019-06-15T06:03:16.523Z,22.15
2019-06-15T06:04:16.806Z,22.13
2019-06-15T06:05:17.093Z,22.23
2019-06-15T06:06:16.386Z,22.40
2019-06-15T06:07:16.658Z,22.55
2019-06-15T06:08:16.925Z,22.35
2019-06-15T06:09:17.191Z,22.65
2019-06-15T06:10:16.463Z,22.82
2019-06-15T06:11:16.527Z,22.95
2019-06-15T06:12:16.794Z,22.96
2019-06-15T06:13:17.071Z,23.12
2019-06-15T06:14:16.346Z,23.25
2019-06-15T06:15:16.626Z,23.51
2019-06-15T06:16:16.894Z,23.58
2019-06-15T06:17:17.169Z,23.81
2019-06-15T06:18:16.486Z,24.04
2019-06-15T06:19:16.751Z,24.04
2019-06-15T06:20:17.044Z,24.22
2019-06-15T06:21:17.094Z,24.17
2019-06-15T06:22:16.354Z,23.96
2019-06-15T06:23:16.623Z,23.92
2019-06-15T06:24:16.891Z,23.65
2019-06-15T06:25:17.155Z,23.57
2019-06-15T06:26:16.436Z,23.61
2019-06-15T06:27:16.728Z,23.75
2019-06-15T06:28:17.008Z,23.43
2019-06-15T06:29:16.283Z,23.67
2019-06-15T06:30:16.555Z,23.81
2019-06-15T06:31:16.614Z,23.92
2019-06-15T06:32:16.898Z,23.64
2019-06-15T06:33:16.218Z,23.73
2019-06-15T06:34:16.504Z,23.56
2019-06-15T06:35:16.784Z,23.81
2019-06-15T06:36:17.059Z,23.74
2019-06-15T06:37:16.333Z,23.85
2019-06-15T06:38:16.609Z,24.11
2019-06-15T06:39:16.897Z,24.56
2019-06-15T06:40:17.201Z,23.98
2019-06-15T06:41:16.227Z,24.30
2019-06-15T06:42:16.503Z,24.54
2019-06-15T06:43:16.806Z,24.66
2019-06-15T06:44:17.085Z,24.23
2019-06-15T06:45:16.465Z,24.19
2019-06-15T06:46:16.748Z,24.17
2019-06-15T06:47:17.026Z,24.15
2019-06-15T06:48:16.303Z,23.98
2019-06-15T06:49:16.573Z,23.56
2019-06-15T06:50:16.849Z,23.46
2019-06-15T06:51:16.939Z,23.43
2019-06-15T06:52:17.209Z,23.23
2019-06-15T06:53:16.490Z,23.40
2019-06-15T06:54:16.759Z,23.09
2019-06-15T06:55:17.032Z,23.39
2019-06-15T06:56:16.334Z,23.10
2019-06-15T06:57:16.681Z,23.07
2019-06-15T06:58:16.960Z,23.15
2019-06-15T06:59:16.233Z,22.82
2019-06-15T07:00:16.504Z,23.19
2019-06-15T07:01:16.574Z,23.13
2019-06-15T07:02:16.834Z,23.26
2019-06-15T07:03:17.137Z,23.20
2019-06-15T07:04:16.403Z,22.72
2019-06-15T07:05:16.684Z,22.85
2019-06-15T07:06:16.971Z,22.98
2019-06-15T07:07:16.245Z,23.20
2019-06-15T07:08:16.523Z,23.00
2019-06-15T07:09:16.813Z,23.06
2019-06-15T07:10:17.106Z,23.12
2019-06-15T07:11:17.159Z,23.26
2019-06-15T07:12:16.423Z,23.06
2019-06-15T07:13:16.682Z,22.65
2019-06-15T07:14:16.939Z,22.74
2019-06-15T07:15:16.212Z,22.75
2019-06-15T07:16:16.481Z,22.71
2019-06-15T07:17:16.768Z,22.48
2019-06-15T07:18:17.071Z,22.57
2019-06-15T07:19:16.343Z,22.82
2019-06-15T07:20:16.618Z,22.72
2019-06-15T07:21:16.671Z,22.65
2019-06-15T07:22:16.941Z,22.99
2019-06-15T07:23:16.212Z,22.65
2019-06-15T07:24:16.484Z,22.61
2019-06-15T07:25:16.754Z,22.79
2019-06-15T07:26:17.029Z,22.70
2019-06-15T07:27:16.304Z,22.74
2019-06-15T07:28:16.602Z,22.79
2019-06-15T07:29:16.888Z,22.76
2019-06-15T07:30:17.188Z,22.88
2019-06-15T07:31:16.215Z,23.29
2019-06-15T07:32:16.477Z,23.00
2019-06-15T07:33:16.755Z,22.95
2019-06-15T07:34:17.027Z,22.95
2019-06-15T07:35:16.306Z,23.20
2019-06-15T07:36:16.578Z,22.98
2019-06-15T07:37:16.847Z,22.53
2019-06-15T07:38:17.123Z,22.41
2019-06-15T07:39:16.402Z,22.27
2019-06-15T07:40:16.684Z,22.09
2019-06-15T07:41:16.755Z,22.38
2019-06-15T07:42:17.030Z,22.70
2019-06-15T07:43:16.302Z,22.45
2019-06-15T07:44:16.571Z,22.57
2019-06-15T07:45:16.886Z,22.93
2019-06-15T07:46:17.162Z,22.99
2019-06-15T07:47:16.435Z,22.96
2019-06-15T07:48:16.702Z,22.68
2019-06-15T07:49:16.964Z,22.37
2019-06-15T07:50:16.462Z,22.54
2019-06-15T07:51:16.534Z,22.72
2019-06-15T07:52:16.794Z,22.92
2019-06-15T07:53:17.123Z,23.13
2019-06-15T07:54:16.408Z,23.00
2019-06-15T07:55:16.708Z,22.85
2019-06-15T07:56:16.981Z,22.82
2019-06-15T07:57:16.302Z,23.10
2019-06-15T07:58:24.410Z,23.02
2019-06-15T07:59:16.359Z,22.86
2019-06-15T08:00:16.652Z,23.26
2019-06-15T08:01:16.712Z,22.92
2019-06-15T08:02:16.990Z,23.07
2019-06-15T08:03:16.273Z,23.10
2019-06-15T08:04:16.541Z,22.95
2019-06-15T08:05:16.811Z,22.50
2019-06-15T08:06:17.083Z,22.30
2019-06-15T08:07:16.360Z,22.99
2019-06-15T08:08:16.714Z,23.03
2019-06-15T08:09:16.983Z,23.13
2019-06-15T08:10:16.261Z,22.76
2019-06-15T08:11:16.308Z,22.60
2019-06-15T08:12:16.584Z,22.93
2019-06-15T08:13:16.877Z,23.29
2019-06-15T08:14:17.200Z,23.09
2019-06-15T08:15:16.484Z,22.75
2019-06-15T08:16:16.756Z,22.91
2019-06-15T08:17:17.025Z,23.09
2019-06-15T08:18:16.293Z,23.41
2019-06-15T08:19:16.571Z,23.77
2019-06-15T08:20:16.885Z,23.29
2019-06-15T08:21:16.918Z,23.23
2019-06-15T08:22:17.201Z,23.27
2019-06-15T08:23:16.485Z,23.09
2019-06-15T08:24:16.758Z,23.00
2019-06-15T08:25:17.046Z,23.05
2019-06-15T08:26:16.332Z,23.46
2019-06-15T08:27:16.596Z,23.36
2019-06-15T08:28:16.867Z,23.27
2019-06-15T08:29:17.170Z,23.22
2019-06-15T08:30:16.466Z,23.29
2019-06-15T08:31:16.512Z,23.07
2019-06-15T08:32:16.779Z,23.40
2019-06-15T08:33:17.042Z,23.53
2019-06-15T08:34:16.334Z,23.30
2019-06-15T08:35:16.643Z,23.16
2019-06-15T08:36:16.958Z,23.16
2019-06-15T08:37:16.247Z,23.07
2019-06-15T08:38:16.543Z,23.10
2019-06-15T08:39:16.812Z,22.78
2019-06-15T08:40:17.114Z,22.68
2019-06-15T08:41:17.139Z,22.78
2019-06-15T08:42:16.423Z,22.98
2019-06-15T08:43:16.693Z,23.15
2019-06-15T08:44:16.961Z,22.95
2019-06-15T08:45:16.261Z,22.74
2019-06-15T08:46:16.543Z,23.12
2019-06-15T08:47:16.815Z,23.15
2019-06-15T08:48:17.084Z,23.16
2019-06-15T08:49:16.354Z,23.18
2019-06-15T08:50:16.632Z,23.05
2019-06-15T08:51:16.710Z,23.20
2019-06-15T08:52:16.997Z,23.20
2019-06-15T08:53:16.277Z,23.33
2019-06-15T08:54:16.552Z,23.58
2019-06-15T08:55:16.818Z,23.26
2019-06-15T08:56:17.084Z,23.06
2019-06-15T08:57:16.355Z,22.83
2019-06-15T08:58:16.716Z,23.06
2019-06-15T08:59:17.005Z,23.18
2019-06-15T09:00:16.362Z,23.16
2019-06-15T09:01:16.419Z,22.75
2019-06-15T09:02:16.714Z,22.89
2019-06-15T09:03:16.987Z,22.91
2019-06-15T09:04:16.248Z,22.83
2019-06-15T09:05:16.533Z,22.71
2019-06-15T09:06:16.807Z,22.64
2019-06-15T09:07:17.083Z,22.58
2019-06-15T09:08:16.351Z,22.76
2019-06-15T09:09:16.610Z,22.85
2019-06-15T09:10:16.875Z,23.16
2019-06-15T09:11:16.949Z,22.95
2019-06-15T09:12:16.216Z,22.88
2019-06-15T09:13:16.484Z,22.96
2019-06-15T09:14:16.754Z,23.07
2019-06-15T09:15:17.022Z,23.25
2019-06-15T09:16:16.284Z,23.25
2019-06-15T09:17:16.567Z,22.92
2019-06-15T09:18:16.865Z,22.93
2019-06-15T09:19:17.149Z,23.06
2019-06-15T09:20:16.435Z,23.46
2019-06-15T09:21:16.481Z,23.47
2019-06-15T09:22:16.753Z,23.61
2019-06-15T09:23:17.034Z,23.54
2019-06-15T09:24:16.309Z,23.48
2019-06-15T09:25:16.589Z,23.84
2019-06-15T09:26:16.858Z,23.73
2019-06-15T09:27:17.145Z,23.65
2019-06-15T09:28:16.423Z,23.83
2019-06-15T09:29:16.691Z,23.40
2019-06-15T09:30:16.998Z,23.48
2019-06-15T09:31:17.055Z,23.58
2019-06-15T09:32:16.333Z,23.60
2019-06-15T09:33:16.605Z,23.40
2019-06-15T09:34:19.095Z,23.68
2019-06-15T09:35:16.841Z,23.81
2019-06-15T09:36:17.118Z,23.85
2019-06-15T09:37:16.387Z,23.91
2019-06-15T09:38:16.666Z,23.91
2019-06-15T09:39:17.055Z,23.48
2019-06-15T09:40:16.332Z,23.78
2019-06-15T09:41:16.408Z,23.68
2019-06-15T09:42:16.736Z,23.65
2019-06-15T09:43:17.009Z,23.87
2019-06-15T09:44:16.286Z,23.54
2019-06-15T09:45:16.570Z,23.51
2019-06-15T09:46:16.839Z,23.87
2019-06-15T09:47:17.106Z,24.01
2019-06-15T09:48:16.370Z,24.15
2019-06-15T09:49:16.637Z,23.96
2019-06-15T09:50:16.936Z,23.78
2019-06-15T09:51:16.985Z,23.60
2019-06-15T09:52:16.267Z,23.88
2019-06-15T09:53:16.537Z,23.73
2019-06-15T09:54:16.801Z,23.83
2019-06-15T09:55:17.065Z,23.77
2019-06-15T09:56:16.349Z,24.35
2019-06-15T09:57:16.617Z,24.30
2019-06-15T09:58:16.901Z,24.15
2019-06-15T09:59:25.503Z,24.46
2019-06-15T10:00:16.784Z,23.99
2019-06-15T10:01:16.840Z,24.08
2019-06-15T10:02:17.118Z,23.68
2019-06-15T10:03:16.387Z,23.53
2019-06-15T10:04:16.657Z,23.30
2019-06-15T10:05:16.926Z,23.34
2019-06-15T10:06:17.198Z,23.50
2019-06-15T10:07:16.464Z,23.92
2019-06-15T10:08:16.741Z,23.81
2019-06-15T10:09:17.045Z,23.69
2019-06-15T10:10:16.324Z,23.37
2019-06-15T10:11:16.400Z,23.36
2019-06-15T10:12:16.708Z,23.43
2019-06-15T10:13:16.987Z,23.37
2019-06-15T10:14:16.281Z,23.46
2019-06-15T10:15:16.546Z,23.64
2019-06-15T10:16:16.828Z,23.57
2019-06-15T10:17:17.105Z,23.53
2019-06-15T10:18:16.373Z,23.37
2019-06-15T10:19:16.678Z,23.57
2019-06-15T10:20:16.967Z,23.51
2019-06-15T10:21:17.042Z,23.85
2019-06-15T10:22:16.318Z,23.81
2019-06-15T10:23:16.589Z,23.91
2019-06-15T10:24:16.859Z,23.95
2019-06-15T10:25:17.149Z,23.99
2019-06-15T10:26:16.456Z,23.61
2019-06-15T10:27:16.729Z,23.48
2019-06-15T10:28:17.010Z,23.44
2019-06-15T10:29:16.279Z,23.62
2019-06-15T10:30:16.583Z,23.75
2019-06-15T10:31:16.622Z,23.91
2019-06-15T10:32:16.888Z,23.58
2019-06-15T10:33:17.159Z,23.75
2019-06-15T10:34:16.436Z,23.69
2019-06-15T10:35:16.712Z,23.73
2019-06-15T10:36:17.033Z,23.60
2019-06-15T10:37:16.377Z,23.13
2019-06-15T10:38:16.642Z,23.33
2019-06-15T10:39:16.914Z,23.40
2019-06-15T10:40:17.202Z,23.48
2019-06-15T10:41:16.235Z,23.57
2019-06-15T10:42:16.494Z,23.58
2019-06-15T10:43:16.761Z,23.56
2019-06-15T10:44:17.037Z,23.40
2019-06-15T10:45:16.313Z,23.64
2019-06-15T10:46:16.625Z,23.67
2019-06-15T10:47:16.910Z,23.46
2019-06-15T10:48:17.188Z,23.73
2019-06-15T10:49:16.467Z,23.58
2019-06-15T10:50:16.751Z,23.58
2019-06-15T10:51:16.815Z,23.67
2019-06-15T10:52:17.104Z,23.75
2019-06-15T10:53:16.408Z,23.44
2019-06-15T10:54:16.666Z,23.84
2019-06-15T10:55:16.938Z,24.29
2019-06-15T10:56:17.219Z,24.54
2019-06-15T10:57:16.505Z,23.68
2019-06-15T10:58:16.820Z,23.53
2019-06-15T10:59:17.100Z,23.51
2019-06-15T11:00:16.374Z,23.60
2019-06-15T11:01:16.443Z,23.60
2019-06-15T11:02:16.723Z,23.60
2019-06-15T11:03:16.990Z,23.53
2019-06-15T11:04:16.265Z,23.68
2019-06-15T11:05:16.550Z,23.50
2019-06-15T11:06:16.828Z,23.65
2019-06-15T11:07:17.127Z,23.39
2019-06-15T11:08:16.420Z,23.77
2019-06-15T11:09:16.706Z,24.11
2019-06-15T11:10:16.970Z,23.80
2019-06-15T11:11:17.042Z,23.78
2019-06-15T11:12:16.311Z,23.74
2019-06-15T11:13:16.581Z,24.11
2019-06-15T11:14:16.852Z,24.16
2019-06-15T11:15:17.153Z,24.01
2019-06-15T11:16:16.421Z,24.05
2019-06-15T11:17:16.697Z,24.19
2019-06-15T11:18:16.975Z,24.44
2019-06-15T11:19:16.256Z,24.20
2019-06-15T11:20:16.795Z,23.87
2019-06-15T11:21:16.588Z,24.08
2019-06-15T11:22:16.858Z,23.84
2019-06-15T11:23:17.139Z,23.73
2019-06-15T11:24:16.410Z,23.94
2019-06-15T11:25:16.695Z,23.94
2019-06-15T11:26:16.970Z,24.91
2019-06-15T11:27:16.251Z,25.09
2019-06-15T11:28:16.510Z,24.49
2019-06-15T11:29:16.778Z,24.20
2019-06-15T11:30:17.067Z,23.22
2019-06-15T11:31:17.137Z,23.56
2019-06-15T11:32:16.403Z,23.48
2019-06-15T11:33:16.675Z,23.78
2019-06-15T11:34:16.949Z,23.32
2019-06-15T11:35:16.223Z,23.41
2019-06-15T11:36:16.491Z,23.36
2019-06-15T11:37:16.773Z,23.67
2019-06-15T11:38:17.042Z,24.11
2019-06-15T11:39:16.320Z,24.44
2019-06-15T11:40:16.670Z,24.66
2019-06-15T11:41:16.742Z,24.22
2019-06-15T11:42:17.008Z,24.08
2019-06-15T11:43:16.291Z,24.43
2019-06-15T11:44:16.580Z,24.71
2019-06-15T11:45:16.863Z,24.33
2019-06-15T11:46:17.171Z,24.40
2019-06-15T11:47:16.488Z,24.91
2019-06-15T11:48:16.760Z,24.84
2019-06-15T11:49:17.080Z,24.77
2019-06-15T11:50:16.376Z,24.22
2019-06-15T11:51:16.423Z,25.19
2019-06-15T11:52:16.686Z,25.22
2019-06-15T11:53:16.957Z,24.67
2019-06-15T11:54:16.256Z,24.56
2019-06-15T11:55:19.201Z,24.51
2019-06-15T11:56:16.397Z,24.92
2019-06-15T11:57:16.667Z,24.61
2019-06-15T11:58:16.950Z,23.87
2019-06-15T11:59:16.239Z,23.94
2019-06-15T12:00:30.223Z,23.99
2019-06-15T12:01:18.861Z,24.08
2019-06-15T12:02:16.364Z,24.38
2019-06-15T12:03:16.653Z,24.04
2019-06-15T12:04:16.929Z,24.27
2019-06-15T12:05:16.214Z,24.20
2019-06-15T12:06:16.489Z,24.17
2019-06-15T12:07:16.766Z,24.33
2019-06-15T12:08:17.039Z,24.43
2019-06-15T12:09:16.323Z,24.49
2019-06-15T12:10:16.608Z,24.68
2019-06-15T12:11:16.646Z,23.71
2019-06-15T12:12:16.913Z,23.95
2019-06-15T12:13:17.184Z,24.22
2019-06-15T12:14:16.461Z,24.43
2019-06-15T12:15:16.731Z,24.15
2019-06-15T12:16:17.000Z,23.83
2019-06-15T12:17:16.273Z,24.23
2019-06-15T12:18:16.547Z,24.29
2019-06-15T12:19:16.823Z,24.42
2019-06-15T12:20:17.114Z,24.40
2019-06-15T12:21:17.182Z,24.36
2019-06-15T12:22:16.458Z,24.60
2019-06-15T12:23:16.731Z,24.09
2019-06-15T12:24:17.013Z,24.17
2019-06-15T12:25:16.290Z,23.92
2019-06-15T12:26:16.554Z,23.73
2019-06-15T12:27:16.822Z,23.89
2019-06-15T12:28:17.119Z,23.88
2019-06-15T12:29:16.448Z,23.69
2019-06-15T12:30:16.739Z,23.64
2019-06-15T12:31:16.805Z,23.47
2019-06-15T12:32:17.093Z,23.85
2019-06-15T12:33:16.520Z,23.81
2019-06-15T12:34:16.808Z,23.91
2019-06-15T12:35:17.069Z,23.78
2019-06-15T12:36:19.370Z,23.73
2019-06-15T12:37:17.083Z,24.11
2019-06-15T12:38:16.353Z,24.27
2019-06-15T12:39:16.668Z,24.24
2019-06-15T12:40:16.961Z,23.80
2019-06-15T12:41:17.008Z,23.75
2019-06-15T12:42:16.278Z,23.95
2019-06-15T12:43:16.560Z,23.34
2019-06-15T12:44:16.839Z,23.68
2019-06-15T12:45:17.109Z,23.99
2019-06-15T12:46:16.378Z,24.16
2019-06-15T12:47:16.652Z,24.05
2019-06-15T12:48:16.924Z,23.98
2019-06-15T12:49:17.194Z,23.88
2019-06-15T12:50:16.498Z,23.92
2019-06-15T12:51:16.689Z,23.75
2019-06-15T12:52:16.978Z,23.74